Time;durP1;ratioP1;P1;durP2;ratioP2;P2;SDS_P1;SDS_P2;PMS_P1;PMS_P2;Temp;Humidity;BMP_temperature;BMP_pressure;BME280_temperature;BME280_humidity;BME280_pressure;Samples;Min_cycle;Max_cycle;Signal;HPM_P1;HPM_P2
2022/02/24 00:00:13;;;;;;;22.52;11.15;;;3.20;69.20;;;;;;5039215;28;20171;-84
2022/02/24 00:02:39;;;;;;;23.35;11.50;;;3.30;68.80;;;;;;5056196;28;20028;-83
2022/02/24 00:05:06;;;;;;;25.45;13.20;;;3.20;69.30;;;;;;5055957;28;20479;-83
2022/02/24 00:07:32;;;;;;;23.88;11.18;;;3.20;70.00;;;;;;5055797;28;20108;-83
2022/02/24 00:09:58;;;;;;;22.42;12.07;;;3.20;69.30;;;;;;5055553;28;20131;-83
2022/02/24 00:12:23;;;;;;;28.70;12.43;;;3.20;70.30;;;;;;5037712;28;20021;-83
2022/02/24 00:14:50;;;;;;;24.15;12.25;;;3.20;70.30;;;;;;5055784;28;20052;-83
2022/02/24 00:17:16;;;;;;;22.40;11.95;;;3.30;70.10;;;;;;5037648;28;20032;-83
2022/02/24 00:19:41;;;;;;;22.15;12.82;;;3.30;70.00;;;;;;5055957;28;20044;-83
2022/02/24 00:22:07;;;;;;;25.70;13.80;;;3.30;71.20;;;;;;5037779;28;20111;-83
2022/02/24 00:24:33;;;;;;;27.27;14.60;;;3.30;71.80;;;;;;5055111;28;20381;-83
2022/02/24 00:26:58;;;;;;;25.92;14.50;;;3.30;71.80;;;;;;5056577;28;20049;-82
2022/02/24 00:29:24;;;;;;;32.95;17.30;;;3.30;71.90;;;;;;5037898;28;20400;-82
2022/02/24 00:31:50;;;;;;;36.72;18.85;;;3.30;72.40;;;;;;5055448;28;20359;-83
2022/02/24 00:34:16;;;;;;;38.47;18.73;;;3.30;72.80;;;;;;5055464;28;20044;-82
2022/02/24 00:36:43;;;;;;;45.42;21.10;;;3.30;72.20;;;;;;5037878;28;20451;-83
2022/02/24 00:39:08;;;;;;;35.67;18.02;;;3.30;72.00;;;;;;5037604;28;20201;-82
2022/02/24 00:41:34;;;;;;;40.72;20.45;;;3.20;72.20;;;;;;5055123;28;20371;-82
2022/02/24 00:44:00;;;;;;;39.03;18.80;;;3.20;72.40;;;;;;5055808;28;20021;-83
2022/02/24 00:46:25;;;;;;;35.95;17.65;;;3.10;72.50;;;;;;5036808;28;20032;-82
2022/02/24 00:48:51;;;;;;;32.53;16.27;;;3.10;71.80;;;;;;5054976;28;20478;-83
2022/02/24 00:51:17;;;;;;;31.10;16.90;;;3.00;72.50;;;;;;5037226;28;20074;-83
2022/02/24 00:53:42;;;;;;;33.80;16.83;;;3.00;72.90;;;;;;5037134;28;20443;-83
2022/02/24 00:56:11;;;;;;;37.58;19.67;;;2.90;72.60;;;;;;5036873;28;20459;-82
2022/02/24 00:58:38;;;;;;;37.17;17.98;;;2.80;72.90;;;;;;5054927;28;20017;-83
2022/02/24 01:01:04;;;;;;;34.13;16.70;;;2.80;72.90;;;;;;5054739;28;20067;-83
2022/02/24 01:03:30;;;;;;;34.70;17.42;;;2.80;72.90;;;;;;5054693;28;20029;-83
2022/02/24 01:05:55;;;;;;;39.60;18.58;;;2.80;74.20;;;;;;5036771;28;20027;-83
2022/02/24 01:08:21;;;;;;;42.05;21.05;;;2.70;74.00;;;;;;5036811;28;20435;-82
2022/02/24 01:10:47;;;;;;;37.63;19.70;;;2.70;74.40;;;;;;5036619;28;20028;-83
2022/02/24 01:13:13;;;;;;;36.67;20.15;;;2.60;74.60;;;;;;5036401;28;20013;-83
2022/02/24 01:15:42;;;;;;;37.40;19.98;;;2.60;74.50;;;;;;5036140;28;20051;-82
2022/02/24 01:18:08;;;;;;;37.22;19.10;;;2.60;75.00;;;;;;5036646;28;20078;-82
2022/02/24 01:20:34;;;;;;;36.85;18.40;;;2.60;74.80;;;;;;5036690;28;20062;-82
2022/02/24 01:23:00;;;;;;;35.78;18.92;;;2.60;74.80;;;;;;5036546;28;20115;-82
2022/02/24 01:25:25;;;;;;;38.65;18.70;;;2.60;74.80;;;;;;5036389;28;20037;-83
2022/02/24 01:27:52;;;;;;;43.10;20.55;;;2.60;75.30;;;;;;5036296;28;20403;-82
2022/02/24 01:30:18;;;;;;;39.95;20.77;;;2.50;76.10;;;;;;5054831;28;20017;-82
2022/02/24 01:32:44;;;;;;;37.58;20.23;;;2.50;76.40;;;;;;5053822;28;20040;-82
2022/02/24 01:35:10;;;;;;;40.40;20.17;;;2.40;76.50;;;;;;5054327;28;20431;-82
2022/02/24 01:37:36;;;;;;;43.15;19.88;;;2.40;77.20;;;;;;5054083;28;20025;-82
2022/02/24 01:40:06;;;;;;;37.22;17.50;;;2.40;76.30;;;;;;5054079;28;20033;-82
2022/02/24 01:42:32;;;;;;;36.87;17.57;;;2.30;76.20;;;;;;5054023;28;20027;-82
2022/02/24 01:44:58;;;;;;;34.03;17.67;;;2.30;76.80;;;;;;5036645;28;20346;-83
2022/02/24 01:47:25;;;;;;;34.05;16.65;;;2.30;76.80;;;;;;5036077;28;20028;-82
2022/02/24 01:49:50;;;;;;;37.35;17.20;;;2.30;77.30;;;;;;5036132;28;20017;-83
2022/02/24 01:52:16;;;;;;;40.13;18.33;;;2.30;77.60;;;;;;5036658;28;20428;-82
2022/02/24 01:54:43;;;;;;;29.20;16.10;;;2.30;77.90;;;;;;5053876;28;20036;-83
2022/02/24 01:57:09;;;;;;;36.20;17.90;;;2.40;77.70;;;;;;5053267;28;20067;-82
2022/02/24 01:59:35;;;;;;;36.70;18.23;;;2.40;78.30;;;;;;5054897;28;20017;-82
2022/02/24 02:02:01;;;;;;;37.67;19.92;;;2.40;78.70;;;;;;5054045;28;20052;-83
2022/02/24 02:04:27;;;;;;;38.70;18.60;;;2.30;79.30;;;;;;5036800;28;20080;-83
2022/02/24 02:06:56;;;;;;;38.35;18.63;;;2.30;79.50;;;;;;5053846;28;20474;-83
2022/02/24 02:09:23;;;;;;;39.75;17.45;;;2.30;80.00;;;;;;5036520;28;20478;-83
2022/02/24 02:11:49;;;;;;;38.88;17.75;;;2.30;78.90;;;;;;5035779;28;20031;-83
2022/02/24 02:14:14;;;;;;;37.83;17.77;;;2.20;78.20;;;;;;5054340;28;20096;-83
2022/02/24 02:16:47;;;;;;;33.15;18.50;;;2.20;78.50;;;;;;5053738;28;20026;-83
2022/02/24 02:19:13;;;;;;;31.90;17.50;;;2.20;79.20;;;;;;5035759;28;20029;-82
2022/02/24 02:21:39;;;;;;;32.33;17.08;;;2.20;79.20;;;;;;5035737;28;20025;-83
2022/02/24 02:24:05;;;;;;;34.40;17.27;;;2.20;79.20;;;;;;5053385;28;20025;-83
2022/02/24 02:26:31;;;;;;;36.95;17.95;;;2.20;79.30;;;;;;5035419;28;20437;-83
2022/02/24 02:28:58;;;;;;;35.75;17.88;;;2.20;79.00;;;;;;5035764;28;20024;-83
2022/02/24 02:31:26;;;;;;;36.00;17.35;;;2.20;79.00;;;;;;5035650;28;20024;-84
2022/02/24 02:34:03;;;;;;;31.95;16.60;;;2.20;78.70;;;;;;5036039;28;20355;-83
2022/02/24 02:36:29;;;;;;;39.45;19.20;;;2.20;79.40;;;;;;5035849;28;20120;-83
2022/02/24 02:38:55;;;;;;;38.53;17.98;;;2.20;79.60;;;;;;5053492;28;20087;-84
2022/02/24 02:41:21;;;;;;;53.85;21.75;;;2.20;78.50;;;;;;5035618;28;20017;-83
2022/02/24 02:43:47;;;;;;;54.13;23.67;;;2.20;79.70;;;;;;5053502;28;20069;-83
2022/02/24 02:46:13;;;;;;;47.10;21.58;;;2.20;79.70;;;;;;5053403;28;20025;-82
2022/02/24 02:48:38;;;;;;;56.92;26.20;;;2.20;79.60;;;;;;5053421;28;20033;-83
2022/02/24 02:51:04;;;;;;;50.20;23.98;;;2.20;80.10;;;;;;5053625;28;20028;-83
2022/02/24 02:53:30;;;;;;;43.22;20.83;;;2.30;79.30;;;;;;5053422;28;20063;-83
2022/02/24 02:55:56;;;;;;;41.92;20.33;;;2.40;79.60;;;;;;5053655;28;20024;-83
2022/02/24 02:58:21;;;;;;;35.20;18.42;;;2.40;79.60;;;;;;5054050;28;20025;-84
2022/02/24 03:00:47;;;;;;;32.75;17.17;;;2.50;79.90;;;;;;5053899;28;20025;-83
2022/02/24 03:03:13;;;;;;;33.63;16.77;;;2.50;79.00;;;;;;5054233;28;20021;-84
2022/02/24 03:05:38;;;;;;;31.70;17.00;;;2.50;78.80;;;;;;5035171;28;20481;-83
2022/02/24 03:08:07;;;;;;;32.35;17.50;;;2.60;78.40;;;;;;5036458;28;20017;-83
2022/02/24 03:10:33;;;;;;;36.05;18.52;;;2.70;78.30;;;;;;5038995;28;20523;-82
2022/02/24 03:12:59;;;;;;;33.63;18.27;;;2.70;77.80;;;;;;5038799;28;20116;-83
2022/02/24 03:15:24;;;;;;;32.30;16.98;;;2.70;77.90;;;;;;5056653;28;20031;-82
2022/02/24 03:17:50;;;;;;;32.78;16.88;;;2.70;77.70;;;;;;5056609;28;20356;-82
2022/02/24 03:20:16;;;;;;;34.92;17.90;;;2.70;78.10;;;;;;5039141;28;20021;-83
2022/02/24 03:22:42;;;;;;;48.20;21.42;;;2.60;78.20;;;;;;5039472;28;20362;-83
2022/02/24 03:25:08;;;;;;;64.45;27.90;;;2.60;78.80;;;;;;5037932;28;20056;-81
2022/02/24 03:27:34;;;;;;;71.70;31.25;;;2.50;79.90;;;;;;5056855;28;20377;-82
2022/02/24 03:30:00;;;;;;;83.50;36.75;;;2.50;80.10;;;;;;5038318;28;20027;-82
2022/02/24 03:32:26;;;;;;;78.82;35.72;;;2.50;81.30;;;;;;5060923;28;20013;-83
2022/02/24 03:34:52;;;;;;;83.15;35.80;;;2.40;81.50;;;;;;5046768;28;20089;-84
2022/02/24 03:37:18;;;;;;;75.95;35.50;;;2.40;82.30;;;;;;5064778;28;20029;-83
2022/02/24 03:39:44;;;;;;;65.45;31.38;;;2.40;82.50;;;;;;5039590;28;20407;-83
2022/02/24 03:42:10;;;;;;;61.22;30.50;;;2.40;82.60;;;;;;5056471;28;20031;-84
2022/02/24 03:44:36;;;;;;;55.67;28.00;;;2.40;82.00;;;;;;5039047;28;20425;-83
2022/02/24 03:47:02;;;;;;;60.53;29.38;;;2.40;81.80;;;;;;5038578;28;20115;-83
2022/02/24 03:49:28;;;;;;;55.20;28.83;;;2.40;83.00;;;;;;5038028;28;20025;-82
2022/02/24 03:51:53;;;;;;;62.85;31.50;;;2.30;83.60;;;;;;5056121;28;20024;-84
2022/02/24 03:54:19;;;;;;;64.90;31.85;;;2.30;83.90;;;;;;5038115;28;20542;-82
2022/02/24 03:56:45;;;;;;;63.88;31.85;;;2.30;84.60;;;;;;5038391;28;20462;-81
2022/02/24 03:59:11;;;;;;;69.20;32.60;;;2.30;84.90;;;;;;5056104;28;20049;-82
2022/02/24 04:01:37;;;;;;;76.35;34.03;;;2.30;85.60;;;;;;5037870;28;20032;-82
2022/02/24 04:04:03;;;;;;;79.65;37.47;;;2.30;85.90;;;;;;5055502;28;20024;-83
2022/02/24 04:06:29;;;;;;;76.90;35.83;;;2.30;86.40;;;;;;5055836;28;20088;-82
2022/02/24 04:08:55;;;;;;;74.60;34.10;;;2.30;85.00;;;;;;5038166;28;20067;-82
2022/02/24 04:11:21;;;;;;;79.28;36.47;;;2.30;84.40;;;;;;5055496;28;20106;-83
2022/02/24 04:13:47;;;;;;;81.82;36.95;;;2.30;84.80;;;;;;5038336;28;20017;-82
2022/02/24 04:16:13;;;;;;;77.13;34.75;;;2.30;85.60;;;;;;5056246;28;20116;-82
2022/02/24 04:18:38;;;;;;;74.30;34.17;;;2.40;85.90;;;;;;5037557;28;20021;-82
2022/02/24 04:21:04;;;;;;;75.63;35.47;;;2.40;86.50;;;;;;5054822;28;20021;-83
2022/02/24 04:23:30;;;;;;;78.07;35.08;;;2.40;87.10;;;;;;5055386;28;20021;-84
2022/02/24 04:25:55;;;;;;;67.93;31.27;;;2.50;87.00;;;;;;5037255;28;20073;-83
2022/02/24 04:28:21;;;;;;;56.47;27.60;;;2.40;87.20;;;;;;5036914;28;20505;-83
2022/02/24 04:30:47;;;;;;;61.00;29.40;;;2.40;86.80;;;;;;5037341;28;20451;-84
2022/02/24 04:33:13;;;;;;;59.90;29.35;;;2.40;87.40;;;;;;5055308;28;20021;-83
2022/02/24 04:35:39;;;;;;;53.50;26.85;;;2.40;87.60;;;;;;5037401;28;20087;-84
2022/02/24 04:38:05;;;;;;;52.15;25.95;;;2.40;86.90;;;;;;5055140;28;20448;-85
2022/02/24 04:40:30;;;;;;;49.97;26.13;;;2.40;87.40;;;;;;5037818;28;20036;-85
2022/02/24 04:42:56;;;;;;;54.38;28.50;;;2.40;87.60;;;;;;5037028;28;20374;-84
2022/02/24 04:45:22;;;;;;;61.28;30.17;;;2.50;87.90;;;;;;5055061;28;20024;-85
2022/02/24 04:47:47;;;;;;;61.28;30.63;;;2.40;88.40;;;;;;5036866;28;20028;-84
2022/02/24 04:50:13;;;;;;;66.63;31.05;;;2.40;88.80;;;;;;5037810;28;20059;-84
2022/02/24 04:52:39;;;;;;;53.33;27.20;;;2.40;89.40;;;;;;5037059;28;20447;-84
2022/02/24 04:55:07;;;;;;;59.58;28.92;;;2.50;87.80;;;;;;5037553;28;20347;-83
2022/02/24 04:57:33;;;;;;;62.88;28.90;;;2.50;88.20;;;;;;5036769;28;20466;-85
2022/02/24 04:59:59;;;;;;;61.70;29.25;;;2.50;88.40;;;;;;5036770;28;20029;-83
2022/02/24 05:02:24;;;;;;;61.35;29.58;;;2.50;88.20;;;;;;5054607;28;20020;-83
2022/02/24 05:04:50;;;;;;;304.00;170.60;;;2.60;88.20;;;;;;5036814;28;20026;-83
2022/02/24 05:07:16;;;;;;;197.30;94.60;;;2.60;88.60;;;;;;5054822;28;20090;-88
2022/02/24 05:09:43;;;;;;;143.60;67.07;;;2.70;88.40;;;;;;5037332;28;20422;-85
2022/02/24 05:12:09;;;;;;;107.70;53.38;;;2.80;88.30;;;;;;5036411;28;20021;-88
2022/02/24 05:14:35;;;;;;;98.70;48.35;;;2.90;87.70;;;;;;5036997;28;20021;-85
2022/02/24 05:17:01;;;;;;;100.68;43.80;;;2.90;88.50;;;;;;5036611;28;20477;-77
2022/02/24 05:19:26;;;;;;;97.80;44.95;;;3.00;88.90;;;;;;5036391;28;20017;-83
2022/02/24 05:21:52;;;;;;;91.00;43.88;;;3.00;88.70;;;;;;5054058;28;20016;-85
2022/02/24 05:24:18;;;;;;;82.72;41.33;;;3.10;88.90;;;;;;5054390;28;20029;-83
2022/02/24 05:26:45;;;;;;;85.18;40.63;;;3.10;88.40;;;;;;5053615;28;20088;-82
2022/02/24 05:29:10;;;;;;;81.65;40.90;;;3.10;88.30;;;;;;5035806;28;20025;-83
2022/02/24 05:31:36;;;;;;;81.07;39.75;;;3.20;87.80;;;;;;5054228;28;20028;-82
2022/02/24 05:34:03;;;;;;;86.65;43.33;;;3.20;87.60;;;;;;5035108;28;20110;-81
2022/02/24 05:36:28;;;;;;;92.32;44.47;;;3.20;87.30;;;;;;5053822;28;20029;-84
2022/02/24 05:38:54;;;;;;;94.82;44.67;;;3.30;87.00;;;;;;5035434;28;20097;-81
2022/02/24 05:41:21;;;;;;;98.07;46.50;;;3.40;86.70;;;;;;5053518;28;20032;-82
2022/02/24 05:43:50;;;;;;;122.93;57.25;;;3.40;86.20;;;;;;5036117;28;20025;-81
2022/02/24 05:46:16;;;;;;;135.65;63.53;;;3.40;85.70;;;;;;5035906;28;20079;-85
2022/02/24 05:48:41;;;;;;;126.25;58.90;;;3.40;85.80;;;;;;5036406;28;20061;-84
2022/02/24 05:51:07;;;;;;;101.70;50.67;;;3.40;85.60;;;;;;5035950;28;20056;-85
2022/02/24 05:53:33;;;;;;;99.75;49.72;;;3.40;85.00;;;;;;5054393;28;20021;-82
2022/02/24 05:55:59;;;;;;;96.68;48.33;;;3.50;85.40;;;;;;5035503;28;20021;-83
2022/02/24 05:58:24;;;;;;;95.50;47.53;;;3.50;85.00;;;;;;5053320;28;20024;-82
2022/02/24 06:00:50;;;;;;;216.68;109.03;;;3.50;85.10;;;;;;5035379;28;20253;-84
2022/02/24 06:03:16;;;;;;;173.85;89.80;;;3.60;84.90;;;;;;5053085;28;20024;-79
2022/02/24 06:05:41;;;;;;;140.02;72.78;;;3.60;84.70;;;;;;5035354;28;20443;-85
2022/02/24 06:08:07;;;;;;;122.95;61.83;;;3.70;84.20;;;;;;5052639;28;20107;-82
2022/02/24 06:10:33;;;;;;;104.75;54.75;;;3.70;84.70;;;;;;5053221;28;20474;-85
2022/02/24 06:12:59;;;;;;;92.43;49.95;;;3.80;84.00;;;;;;5054122;28;20104;-84
2022/02/24 06:15:25;;;;;;;92.68;48.25;;;3.90;83.20;;;;;;5035730;28;20453;-79
2022/02/24 06:17:51;;;;;;;80.95;42.00;;;3.90;84.00;;;;;;5052605;28;20036;-81
2022/02/24 06:20:16;;;;;;;69.82;37.50;;;3.90;84.20;;;;;;5034825;28;20017;-79
2022/02/24 06:22:42;;;;;;;68.32;35.33;;;4.00;83.10;;;;;;5034682;28;20025;-79
2022/02/24 06:25:09;;;;;;;67.03;33.92;;;4.00;83.40;;;;;;5034515;28;20324;-80
2022/02/24 06:27:34;;;;;;;65.63;32.15;;;4.00;83.70;;;;;;5035510;28;20068;-82
